createdAt,value
2022-11-22T00:00:51.712Z,2.60
2022-11-22T00:03:19.694Z,2.50
2022-11-22T00:05:47.936Z,2.50
2022-11-22T00:08:15.807Z,2.50
2022-11-22T00:10:43.761Z,2.40
2022-11-22T00:13:11.713Z,2.50
2022-11-22T00:15:41.034Z,2.30
2022-11-22T00:18:08.950Z,2.50
2022-11-22T00:20:37.177Z,2.50
2022-11-22T00:23:05.098Z,2.50
2022-11-22T00:25:32.978Z,2.40
2022-11-22T00:28:00.950Z,2.50
2022-11-22T00:30:28.894Z,2.60
2022-11-22T00:32:58.213Z,2.40
2022-11-22T00:35:26.167Z,2.50
2022-11-22T00:37:54.343Z,2.50
2022-11-22T00:40:22.359Z,2.50
2022-11-22T00:42:50.212Z,2.60
2022-11-22T00:45:18.206Z,2.60
2022-11-22T00:47:46.233Z,2.80
2022-11-22T00:50:15.590Z,2.80
2022-11-22T00:52:43.450Z,3.00
2022-11-22T00:55:11.332Z,2.80
2022-11-22T00:57:39.180Z,2.90
2022-11-22T01:00:08.562Z,3.00
2022-11-22T01:02:36.403Z,3.00
2022-11-22T01:05:04.386Z,2.90
2022-11-22T01:07:33.664Z,3.10
2022-11-22T01:10:01.848Z,3.10
2022-11-22T01:12:30.020Z,2.90
2022-11-22T01:14:58.042Z,3.00
2022-11-22T01:17:25.930Z,3.00
2022-11-22T01:19:53.759Z,2.90
2022-11-22T01:22:21.703Z,2.90
2022-11-22T01:24:50.902Z,2.90
2022-11-22T01:27:18.780Z,3.00
2022-11-22T01:29:46.743Z,3.10
2022-11-22T01:32:14.804Z,2.90
2022-11-22T01:34:42.722Z,3.10
2022-11-22T01:37:10.742Z,3.10
2022-11-22T01:39:38.668Z,3.10
2022-11-22T01:42:08.222Z,3.20
2022-11-22T01:44:36.262Z,3.20
2022-11-22T01:47:05.625Z,3.20
2022-11-22T01:49:34.736Z,3.30
2022-11-22T01:52:08.256Z,3.20
2022-11-22T01:54:39.292Z,3.10
2022-11-22T01:57:12.078Z,3.20
2022-11-22T01:59:40.810Z,3.30
2022-11-22T02:02:08.824Z,3.10
2022-11-22T02:04:36.877Z,3.00
2022-11-22T02:07:07.240Z,2.80
2022-11-22T02:09:35.343Z,2.90
2022-11-22T02:12:04.710Z,2.90
2022-11-22T02:14:33.991Z,3.10
2022-11-22T02:17:01.912Z,3.10
2022-11-22T02:19:35.050Z,3.10
2022-11-22T02:22:07.040Z,3.00
2022-11-22T02:24:38.416Z,3.10
2022-11-22T02:27:07.791Z,3.00
2022-11-22T02:29:35.863Z,3.10
2022-11-22T02:32:03.859Z,3.20
2022-11-22T02:34:41.502Z,3.20
2022-11-22T02:37:09.342Z,3.00
2022-11-22T02:39:37.162Z,3.20
2022-11-22T02:42:05.135Z,3.20
2022-11-22T02:44:34.499Z,3.30
2022-11-22T02:47:02.336Z,3.40
2022-11-22T02:49:30.371Z,3.40
2022-11-22T02:51:58.313Z,3.20
2022-11-22T02:54:26.210Z,3.20
2022-11-22T02:56:54.048Z,3.30
2022-11-22T02:59:21.891Z,3.30
2022-11-22T03:01:51.080Z,3.40
2022-11-22T03:04:25.498Z,3.40
2022-11-22T03:06:54.928Z,3.30
2022-11-22T03:09:22.818Z,3.30
2022-11-22T03:11:50.639Z,3.20
2022-11-22T03:14:18.505Z,3.30
2022-11-22T03:16:46.431Z,3.30
2022-11-22T03:19:15.610Z,3.10
2022-11-22T03:21:43.730Z,3.20
2022-11-22T03:24:11.614Z,3.10
2022-11-22T03:26:39.543Z,3.20
2022-11-22T03:29:07.417Z,3.20
2022-11-22T03:31:35.232Z,3.20
2022-11-22T03:34:03.061Z,3.20
2022-11-22T03:36:32.256Z,3.30
2022-11-22T03:39:00.240Z,3.30
2022-11-22T03:41:28.070Z,3.20
2022-11-22T03:43:55.894Z,3.30
2022-11-22T03:46:23.729Z,3.30
2022-11-22T03:48:51.574Z,3.30
2022-11-22T03:51:19.407Z,3.30
2022-11-22T03:53:48.613Z,3.30
2022-11-22T03:56:16.459Z,3.30
2022-11-22T03:58:44.303Z,3.40
2022-11-22T04:01:16.579Z,3.40
2022-11-22T04:03:44.882Z,3.30
2022-11-22T04:06:12.700Z,3.30
2022-11-22T04:08:40.659Z,3.40
2022-11-22T04:11:09.892Z,3.40
2022-11-22T04:13:55.346Z,3.40
2022-11-22T04:16:23.202Z,3.50
2022-11-22T04:18:51.042Z,3.40
2022-11-22T04:21:36.327Z,3.50
2022-11-22T04:24:22.691Z,3.50
2022-11-22T04:26:51.914Z,3.50
2022-11-22T04:29:20.103Z,3.40
2022-11-22T04:32:05.667Z,3.50
2022-11-22T04:34:33.518Z,3.50
2022-11-22T04:37:01.433Z,3.60
2022-11-22T04:39:29.647Z,3.50
2022-11-22T04:42:16.621Z,3.50
2022-11-22T04:44:44.706Z,3.40
2022-11-22T04:47:13.180Z,3.40
2022-11-22T04:49:41.049Z,3.50
2022-11-22T04:52:27.357Z,3.60
2022-11-22T04:54:55.178Z,3.60
2022-11-22T04:57:24.359Z,3.60
2022-11-22T04:59:52.210Z,3.70
2022-11-22T05:02:20.023Z,3.60
2022-11-22T05:04:50.796Z,3.70
2022-11-22T05:07:18.875Z,3.60
2022-11-22T05:09:46.723Z,3.60
2022-11-22T05:12:14.570Z,3.70
2022-11-22T05:14:43.730Z,3.70
2022-11-22T05:17:13.441Z,3.70
2022-11-22T05:19:44.963Z,3.70
2022-11-22T05:22:15.687Z,3.60
2022-11-22T05:24:42.567Z,3.70
2022-11-22T05:27:10.429Z,3.70
2022-11-22T05:29:38.277Z,3.70
2022-11-22T05:32:07.692Z,3.70
2022-11-22T05:34:35.582Z,3.80
2022-11-22T05:37:03.413Z,3.70
2022-11-22T05:39:31.446Z,3.70
2022-11-22T05:41:59.548Z,3.80
2022-11-22T05:44:27.422Z,3.90
2022-11-22T05:46:55.290Z,3.90
2022-11-22T05:49:24.500Z,3.90
2022-11-22T05:51:52.488Z,3.90
2022-11-22T05:54:20.374Z,3.90
2022-11-22T05:56:48.844Z,4.00
2022-11-22T05:59:16.697Z,4.00
2022-11-22T06:01:44.557Z,4.00
2022-11-22T06:04:12.482Z,3.90
2022-11-22T06:06:41.679Z,3.90
2022-11-22T06:09:09.614Z,4.10
2022-11-22T06:11:37.460Z,4.80
2022-11-22T06:14:05.341Z,4.50
2022-11-22T06:16:33.161Z,4.20
2022-11-22T06:19:01.081Z,4.20
2022-11-22T06:21:29.427Z,4.20
2022-11-22T06:23:58.669Z,4.30
2022-11-22T06:26:26.993Z,4.30
2022-11-22T06:28:55.379Z,4.30
2022-11-22T06:31:23.968Z,4.30
2022-11-22T06:33:51.976Z,4.20
2022-11-22T06:36:20.492Z,4.40
2022-11-22T06:38:48.503Z,4.40
2022-11-22T06:41:18.591Z,4.40
2022-11-22T06:43:49.254Z,4.40
2022-11-22T06:46:17.794Z,4.40
2022-11-22T06:48:45.816Z,4.40
2022-11-22T06:51:14.666Z,4.50
2022-11-22T06:53:49.926Z,4.50
2022-11-22T06:56:19.917Z,4.50
2022-11-22T06:58:48.041Z,4.60
2022-11-22T07:01:16.894Z,4.70
2022-11-22T07:03:45.094Z,4.80
2022-11-22T07:06:13.870Z,4.90
2022-11-22T07:08:42.198Z,4.90
2022-11-22T07:11:12.216Z,4.80
2022-11-22T07:13:41.460Z,4.80
2022-11-22T07:16:10.065Z,4.80
2022-11-22T07:18:37.927Z,4.80
2022-11-22T07:21:12.511Z,4.80
2022-11-22T07:23:41.311Z,4.80
2022-11-22T07:26:09.223Z,4.90
2022-11-22T07:28:37.074Z,4.90
2022-11-22T07:31:07.556Z,4.90
2022-11-22T07:33:35.465Z,4.90
2022-11-22T07:36:05.640Z,4.90
2022-11-22T07:38:33.670Z,4.90
2022-11-22T07:41:01.808Z,4.90
2022-11-22T07:43:29.812Z,4.90
2022-11-22T07:46:00.130Z,4.80
2022-11-22T07:48:29.364Z,4.80
2022-11-22T07:50:57.234Z,4.90
2022-11-22T07:53:25.086Z,4.90
2022-11-22T07:55:52.944Z,4.90
2022-11-22T07:58:20.822Z,5.00
2022-11-22T08:00:48.740Z,5.00
2022-11-22T08:03:17.962Z,5.00
2022-11-22T08:05:47.884Z,5.00
2022-11-22T08:08:15.800Z,4.90
2022-11-22T08:10:44.937Z,4.80
2022-11-22T08:13:12.843Z,4.90
2022-11-22T08:15:40.719Z,4.90
2022-11-22T08:18:08.604Z,5.00
2022-11-22T08:20:36.496Z,4.90
2022-11-22T08:23:05.741Z,4.90
2022-11-22T08:25:33.599Z,4.80
2022-11-22T08:28:01.551Z,4.80
2022-11-22T08:30:29.421Z,5.00
2022-11-22T08:32:57.333Z,4.90
2022-11-22T08:35:25.212Z,4.90
2022-11-22T08:37:57.219Z,4.90
2022-11-22T08:40:26.484Z,4.90
2022-11-22T08:42:56.125Z,4.80
2022-11-22T08:45:24.136Z,4.80
2022-11-22T08:47:52.590Z,4.70
2022-11-22T08:50:20.814Z,4.70
2022-11-22T08:52:48.680Z,4.80
2022-11-22T08:55:16.686Z,4.80
2022-11-22T08:57:45.903Z,4.80
2022-11-22T09:00:14.862Z,4.80
2022-11-22T09:02:42.744Z,4.70
2022-11-22T09:05:10.892Z,4.80
2022-11-22T09:10:26.643Z,4.70
2022-11-22T09:12:55.911Z,4.70
2022-11-22T09:15:23.798Z,4.60
2022-11-22T09:17:51.668Z,4.70
2022-11-22T09:20:19.618Z,4.80
2022-11-22T09:22:47.489Z,4.70
2022-11-22T09:25:15.349Z,4.70
2022-11-22T09:27:43.205Z,4.80
2022-11-22T09:30:13.235Z,4.70
2022-11-22T09:32:41.097Z,4.70
2022-11-22T09:35:09.457Z,4.60
2022-11-22T09:37:37.301Z,4.60
2022-11-22T09:40:05.940Z,4.60
2022-11-22T09:43:00.770Z,4.40
2022-11-22T09:45:40.949Z,4.30
2022-11-22T09:48:17.094Z,4.20
2022-11-22T09:50:48.476Z,4.30
2022-11-22T09:53:19.677Z,4.30
2022-11-22T09:55:48.301Z,4.40
2022-11-22T09:58:23.616Z,4.30
2022-11-22T10:00:52.991Z,4.30
2022-11-22T10:03:24.971Z,4.30
2022-11-22T10:05:53.827Z,4.30
2022-11-22T10:08:36.006Z,4.20
2022-11-22T10:11:04.853Z,4.30
2022-11-22T10:13:34.934Z,4.30
2022-11-22T10:16:06.111Z,4.40
2022-11-22T10:18:38.447Z,4.20
2022-11-22T10:21:06.433Z,4.20
2022-11-22T10:23:34.298Z,4.10
2022-11-22T10:26:04.390Z,4.10
2022-11-22T10:28:35.332Z,4.00
2022-11-22T10:31:08.894Z,4.10
2022-11-22T10:33:44.043Z,4.10
2022-11-22T10:36:21.776Z,4.10
2022-11-22T10:38:59.092Z,4.10
2022-11-22T10:41:42.364Z,4.10
2022-11-22T10:44:18.837Z,4.20
2022-11-22T10:46:57.172Z,4.20
2022-11-22T10:49:29.340Z,4.30
2022-11-22T10:51:59.825Z,4.30
2022-11-22T10:54:30.069Z,4.30
2022-11-22T10:57:00.769Z,4.30
2022-11-22T10:59:37.746Z,4.40
2022-11-22T11:02:16.340Z,4.50
2022-11-22T11:04:44.229Z,4.40
2022-11-22T11:07:14.559Z,4.40
2022-11-22T11:12:36.928Z,4.50
2022-11-22T11:15:06.323Z,4.50
2022-11-22T11:17:37.914Z,4.60
2022-11-22T11:20:12.012Z,4.60
2022-11-22T11:25:29.831Z,4.60
2022-11-22T11:27:58.914Z,4.60
2022-11-22T11:30:26.762Z,4.70
2022-11-22T11:32:56.614Z,4.60
2022-11-22T11:35:27.743Z,4.60
2022-11-22T11:37:55.958Z,4.70
2022-11-22T11:40:28.355Z,4.70
2022-11-22T11:43:16.689Z,4.70
2022-11-22T11:45:44.786Z,4.80
2022-11-22T11:48:29.015Z,4.80
2022-11-22T11:51:11.790Z,4.70
2022-11-22T11:53:39.615Z,4.70
2022-11-22T11:56:21.749Z,4.70
2022-11-22T11:58:53.186Z,4.70
2022-11-22T12:01:21.322Z,4.70
2022-11-22T12:03:58.267Z,4.80
2022-11-22T12:06:29.323Z,4.70
2022-11-22T12:08:57.674Z,4.70
2022-11-22T12:11:30.704Z,4.70
2022-11-22T12:16:49.241Z,4.60
2022-11-22T12:19:24.775Z,4.70
2022-11-22T12:21:57.062Z,4.70
2022-11-22T12:24:52.674Z,4.60
2022-11-22T12:27:14.724Z,4.60
2022-11-22T12:29:43.700Z,4.70
2022-11-22T12:32:13.942Z,4.70
2022-11-22T12:34:47.094Z,4.70
2022-11-22T12:37:16.302Z,4.70
2022-11-22T12:39:47.272Z,4.80
2022-11-22T12:45:05.772Z,4.90
2022-11-22T12:47:36.808Z,4.90
2022-11-22T12:48:23.307Z,4.90
2022-11-22T12:50:09.353Z,4.80
2022-11-22T12:52:40.181Z,4.90
2022-11-22T12:55:12.945Z,4.90
2022-11-22T12:57:42.159Z,4.90
2022-11-22T13:00:15.471Z,5.00
2022-11-22T13:02:46.341Z,4.90
2022-11-22T13:05:18.159Z,4.90
2022-11-22T13:07:51.507Z,4.90
2022-11-22T13:10:26.699Z,5.00
2022-11-22T13:12:54.543Z,5.00
2022-11-22T13:15:27.533Z,5.10
2022-11-22T13:17:55.610Z,5.10
2022-11-22T13:20:25.913Z,5.00
2022-11-22T13:23:00.941Z,4.90
2022-11-22T13:26:07.124Z,4.90
2022-11-22T13:32:36.347Z,5.00
2022-11-22T13:35:20.509Z,4.80
2022-11-22T13:37:51.309Z,4.90
2022-11-22T13:40:25.062Z,4.90
2022-11-22T13:43:30.430Z,5.00
2022-11-22T13:45:59.405Z,5.10
2022-11-22T13:49:04.875Z,5.00
2022-11-22T13:51:53.273Z,5.00
2022-11-22T13:55:15.168Z,5.10
2022-11-22T13:57:44.229Z,5.20
2022-11-22T14:00:40.076Z,5.10
2022-11-22T14:03:37.818Z,4.90
2022-11-22T14:06:33.056Z,5.00
2022-11-22T14:09:28.597Z,5.00
2022-11-22T14:12:08.199Z,5.10
2022-11-22T14:14:37.877Z,5.50
2022-11-22T14:17:10.023Z,5.30
2022-11-22T14:19:45.794Z,5.20
2022-11-22T14:22:21.560Z,5.20
2022-11-22T14:24:56.482Z,5.00
2022-11-22T14:27:32.183Z,5.00
2022-11-22T14:30:10.597Z,4.90
2022-11-22T14:32:57.018Z,4.90
2022-11-22T14:35:32.514Z,5.00
2022-11-22T14:38:05.752Z,5.00
2022-11-22T14:40:37.745Z,4.90
2022-11-22T14:43:22.947Z,4.90
2022-11-22T14:45:51.479Z,5.00
2022-11-22T14:48:20.578Z,4.90
2022-11-22T14:50:51.294Z,4.90
2022-11-22T14:53:28.186Z,4.90
2022-11-22T14:55:58.845Z,5.60
2022-11-22T14:58:29.310Z,5.40
2022-11-22T15:01:31.152Z,5.20
2022-11-22T15:09:20.789Z,5.10
2022-11-22T15:09:20.995Z,5.10
2022-11-22T15:11:03.818Z,5.00
2022-11-22T15:14:18.156Z,5.00
2022-11-22T15:57:26.142Z,5.40
2022-11-22T15:59:54.773Z,5.30
2022-11-22T16:02:25.112Z,5.10
2022-11-22T16:06:10.076Z,5.00
2022-11-22T16:07:46.844Z,4.80
2022-11-22T16:10:18.915Z,4.60
2022-11-22T16:12:46.862Z,4.60
2022-11-22T16:15:24.266Z,4.50
2022-11-22T16:17:59.068Z,4.60
2022-11-22T16:20:35.875Z,4.60
2022-11-22T16:23:24.624Z,4.60
2022-11-22T16:27:02.829Z,4.50
2022-11-22T16:29:33.126Z,4.50
2022-11-22T16:32:02.738Z,4.40
2022-11-22T16:34:30.671Z,4.50
2022-11-22T16:37:00.002Z,4.50
2022-11-22T16:39:28.064Z,4.40
2022-11-22T16:41:56.216Z,4.30
2022-11-22T16:44:24.084Z,4.30
2022-11-22T16:46:51.963Z,4.30
2022-11-22T16:49:20.606Z,4.30
2022-11-22T16:51:48.638Z,4.20
2022-11-22T16:54:19.186Z,4.30
2022-11-22T16:56:47.082Z,4.30
2022-11-22T16:59:14.931Z,4.40
2022-11-22T17:01:43.196Z,4.30
2022-11-22T17:04:18.387Z,4.30
2022-11-22T17:06:46.277Z,4.30
2022-11-22T17:09:14.120Z,5.00
2022-11-22T17:11:43.800Z,4.80
2022-11-22T17:14:13.525Z,4.60
2022-11-22T17:16:41.373Z,4.70
2022-11-22T17:19:30.240Z,4.60
2022-11-22T17:21:57.076Z,4.50
2022-11-22T17:24:25.531Z,4.40
2022-11-22T17:26:54.864Z,4.60
2022-11-22T17:29:51.680Z,4.60
2022-11-22T17:32:12.197Z,4.60
2022-11-22T17:34:40.314Z,4.50
2022-11-22T17:37:11.576Z,4.30
2022-11-22T17:39:39.459Z,4.40
2022-11-22T17:42:08.689Z,4.50
2022-11-22T17:44:36.551Z,4.30
2022-11-22T17:47:04.429Z,4.30
2022-11-22T17:49:32.608Z,4.30
2022-11-22T17:52:00.730Z,4.40
2022-11-22T17:55:21.661Z,4.40
2022-11-22T17:57:55.721Z,4.40
2022-11-22T18:00:29.737Z,4.50
2022-11-22T18:02:59.628Z,4.40
2022-11-22T18:05:29.241Z,4.30
2022-11-22T18:07:57.133Z,4.30
2022-11-22T18:10:25.078Z,4.40
2022-11-22T18:13:19.791Z,4.40
2022-11-22T18:15:42.136Z,4.40
2022-11-22T18:18:21.917Z,4.40
2022-11-22T18:20:57.864Z,4.30
2022-11-22T18:23:26.230Z,4.30
2022-11-22T18:26:06.020Z,4.40
2022-11-22T18:28:49.692Z,4.30
2022-11-22T18:31:27.363Z,4.40
2022-11-22T18:33:57.779Z,4.30
2022-11-22T18:40:13.976Z,4.30
2022-11-22T18:42:41.964Z,4.30
2022-11-22T18:45:11.855Z,4.20
2022-11-22T18:47:39.624Z,4.30
2022-11-22T18:50:12.369Z,4.30
2022-11-22T18:52:40.356Z,4.30
2022-11-22T18:55:08.808Z,4.30
2022-11-22T18:57:36.642Z,4.20
2022-11-22T19:00:05.117Z,4.20
2022-11-22T19:02:35.392Z,4.20
2022-11-22T19:05:03.317Z,4.20
2022-11-22T19:07:31.221Z,4.20
2022-11-22T19:09:59.576Z,4.20
2022-11-22T19:12:27.408Z,4.20
2022-11-22T19:14:55.246Z,4.30
2022-11-22T19:17:23.128Z,4.10
2022-11-22T19:19:58.175Z,4.10
2022-11-22T19:22:26.075Z,4.20
2022-11-22T19:24:53.954Z,4.20
2022-11-22T19:27:22.027Z,4.20
2022-11-22T19:29:49.915Z,4.10
2022-11-22T19:32:17.896Z,4.20
2022-11-22T19:34:45.766Z,4.20
2022-11-22T19:37:15.030Z,4.20
2022-11-22T19:39:42.929Z,4.10
2022-11-22T19:42:10.807Z,4.20
2022-11-22T19:44:38.650Z,4.20
2022-11-22T19:47:06.544Z,4.20
2022-11-22T19:49:34.392Z,4.20
2022-11-22T19:52:02.263Z,4.10
2022-11-22T19:54:31.435Z,4.20
2022-11-22T19:56:59.333Z,4.20
2022-11-22T19:59:27.218Z,4.30
2022-11-22T20:01:55.072Z,4.30
2022-11-22T20:04:22.933Z,4.30
2022-11-22T20:06:50.783Z,4.20
2022-11-22T20:09:18.606Z,4.20
2022-11-22T20:11:47.831Z,4.30
2022-11-22T20:14:15.671Z,4.20
2022-11-22T20:16:43.801Z,4.20
2022-11-22T20:19:12.296Z,4.30
2022-11-22T20:21:40.573Z,4.30
2022-11-22T20:24:08.746Z,4.20
2022-11-22T20:26:36.651Z,4.20
2022-11-22T20:29:06.583Z,4.20
2022-11-22T20:31:35.174Z,4.20
2022-11-22T20:34:03.110Z,4.30
2022-11-22T20:36:31.778Z,4.30
2022-11-22T20:39:01.902Z,4.40
2022-11-22T20:41:33.352Z,4.40
2022-11-22T20:44:01.190Z,4.30
2022-11-22T20:46:30.458Z,4.30
2022-11-22T20:48:58.824Z,4.30
2022-11-22T20:51:27.506Z,4.20
2022-11-22T20:53:55.552Z,4.30
2022-11-22T20:56:23.579Z,4.30
2022-11-22T20:58:52.316Z,4.30
2022-11-22T21:01:20.967Z,4.30
2022-11-22T21:03:50.260Z,4.30
2022-11-22T21:06:18.703Z,4.20
2022-11-22T21:08:46.781Z,4.20
2022-11-22T21:11:15.660Z,4.20
2022-11-22T21:13:43.718Z,4.20
2022-11-22T21:16:22.864Z,4.20
2022-11-22T21:18:53.456Z,4.20
2022-11-22T21:21:23.574Z,4.30
2022-11-22T21:23:51.936Z,4.30
2022-11-22T21:26:19.874Z,4.30
2022-11-22T21:28:47.718Z,4.30
2022-11-22T21:31:15.662Z,4.30
2022-11-22T21:33:43.612Z,4.30
2022-11-22T21:36:12.976Z,4.30
2022-11-22T21:38:40.844Z,4.30
2022-11-22T21:41:38.295Z,4.40
2022-11-22T21:43:58.109Z,4.30
2022-11-22T21:46:26.069Z,4.30
2022-11-22T21:48:55.700Z,4.40
2022-11-22T21:51:26.131Z,4.40
2022-11-22T21:53:57.592Z,4.30
2022-11-22T21:56:25.521Z,4.30
2022-11-22T21:58:53.341Z,4.50
2022-11-22T22:01:21.308Z,4.50
2022-11-22T22:03:49.237Z,4.50
2022-11-22T22:06:17.070Z,4.40
2022-11-22T22:08:46.296Z,4.40
2022-11-22T22:11:14.142Z,4.50
2022-11-22T22:13:42.038Z,4.50
2022-11-22T22:16:15.360Z,4.40
2022-11-22T22:18:43.637Z,4.30
2022-11-22T22:21:12.747Z,4.40
2022-11-22T22:23:41.121Z,4.50
2022-11-22T22:26:11.408Z,4.40
2022-11-22T22:28:39.438Z,4.40
2022-11-22T22:31:08.108Z,4.40
2022-11-22T22:33:36.384Z,4.50
2022-11-22T22:36:04.468Z,4.50
2022-11-22T22:38:32.487Z,4.50
2022-11-22T22:41:01.061Z,4.50
2022-11-22T22:43:32.019Z,4.60
2022-11-22T22:46:06.237Z,4.50
2022-11-22T22:48:34.653Z,4.40
2022-11-22T22:51:06.755Z,4.50
2022-11-22T22:53:35.107Z,4.50
2022-11-22T22:56:03.117Z,4.60
2022-11-22T22:58:32.348Z,4.50
2022-11-22T23:01:05.729Z,4.40
2022-11-22T23:03:33.637Z,4.40
2022-11-22T23:06:05.607Z,4.50
2022-11-22T23:08:33.473Z,4.50
2022-11-22T23:11:04.374Z,4.50
2022-11-22T23:13:33.627Z,4.40
2022-11-22T23:16:01.514Z,4.50
2022-11-22T23:18:29.629Z,4.40
2022-11-22T23:20:59.908Z,4.40
2022-11-22T23:23:27.802Z,4.50
2022-11-22T23:25:55.704Z,4.50
2022-11-22T23:28:23.575Z,4.60
2022-11-22T23:30:53.313Z,4.50
2022-11-22T23:33:21.183Z,4.50
2022-11-22T23:35:49.018Z,4.50
2022-11-22T23:38:16.851Z,4.50
2022-11-22T23:40:44.756Z,4.60
2022-11-22T23:43:12.603Z,4.60
2022-11-22T23:45:46.356Z,4.40
2022-11-22T23:48:15.721Z,4.40
2022-11-22T23:50:43.575Z,4.50
2022-11-22T23:53:11.446Z,4.50
2022-11-22T23:55:39.269Z,4.50
2022-11-22T23:58:07.084Z,4.50
